Time;durP1;ratioP1;P1;durP2;ratioP2;P2;SDS_P1;SDS_P2;PMS_P1;PMS_P2;Temp;Humidity;BMP_temperature;BMP_pressure;BME280_temperature;BME280_humidity;BME280_pressure;Samples;Min_cycle;Max_cycle;Signal;HPM_P1;HPM_P2
2022/11/07 00:02:06;;;;;;;0.00;0.00;;;;;;;;;;5089547;28;20128;-85
2022/11/07 00:04:33;;;;;;;0.00;0.00;;;;;;;;;;5089707;28;20090;-84
2022/11/07 00:06:59;;;;;;;0.00;0.00;;;;;;;;;;5073948;28;20036;-85
2022/11/07 00:09:25;;;;;;;0.00;0.00;;;;;;;;;;5089825;28;20036;-85
2022/11/07 00:11:51;;;;;;;0.00;0.00;;;;;;;;;;5089404;28;20045;-85
2022/11/07 00:14:17;;;;;;;0.00;0.00;;;;;;;;;;5089736;28;20218;-86
2022/11/07 00:16:44;;;;;;;0.20;0.15;;;;;;;;;;5072385;28;20051;-86
2022/11/07 00:19:10;;;;;;;0.00;0.00;;;;;;;;;;5072563;28;20047;-85
2022/11/07 00:21:38;;;;;;;0.00;0.00;;;;;;;;;;5072372;28;20119;-86
2022/11/07 00:24:04;;;;;;;0.00;0.00;;;;;;;;;;5072310;28;20040;-86
2022/11/07 00:26:30;;;;;;;0.00;0.00;;;;;;;;;;5089294;28;20040;-85
2022/11/07 00:28:56;;;;;;;0.00;0.00;;;;;;;;;;5071918;28;20116;-85
2022/11/07 00:31:22;;;;;;;0.00;0.00;;;;;;;;;;5089165;28;20559;-85
2022/11/07 00:33:48;;;;;;;0.00;0.00;;;;;;;;;;5089056;28;20129;-86
2022/11/07 00:36:23;;;;;;;0.10;0.10;;;;;;;;;;5089075;28;20052;-85
2022/11/07 00:38:49;;;;;;;0.00;0.00;;;;;;;;;;5089079;28;20071;-84
2022/11/07 00:41:15;;;;;;;0.00;0.00;;;;;;;;;;5088998;28;20040;-87
2022/11/07 00:43:41;;;;;;;0.00;0.00;;;;;;;;;;5088921;28;20048;-85
2022/11/07 00:46:08;;;;;;;0.00;0.00;;;;;;;;;;5089000;28;20036;-85
2022/11/07 00:48:34;;;;;;;0.00;0.00;;;;;;;;;;5089089;28;20033;-85
2022/11/07 00:51:10;;;;;;;0.00;0.00;;;;;;;;;;5089038;28;20399;-85
2022/11/07 00:53:37;;;;;;;0.00;0.00;;;;;;;;;;5088803;28;20192;-85
2022/11/07 00:56:04;;;;;;;0.00;0.00;;;;;;;;;;5088801;28;20049;-85
2022/11/07 00:58:30;;;;;;;0.00;0.00;;;;;;;;;;5088647;28;20055;-85
2022/11/07 01:00:56;;;;;;;0.00;0.00;;;;;;;;;;5088340;28;20128;-85
2022/11/07 01:06:08;;;;;;;0.45;0.30;;;;;;;;;;5071937;28;20123;-85
2022/11/07 01:08:34;;;;;;;0.20;0.00;;;;;;;;;;5071614;28;20396;-85
2022/11/07 01:11:02;;;;;;;0.00;0.00;;;;;;;;;;5088709;28;20049;-85
2022/11/07 01:13:28;;;;;;;0.00;0.00;;;;;;;;;;5088324;28;20483;-84
2022/11/07 01:15:54;;;;;;;0.05;0.03;;;;;;;;;;5071844;28;20084;-85
2022/11/07 01:18:20;;;;;;;0.00;0.00;;;;;;;;;;5088247;28;20040;-85
2022/11/07 01:20:48;;;;;;;0.00;0.00;;;;;;;;;;5088448;28;20071;-86
2022/11/07 01:23:14;;;;;;;0.00;0.00;;;;;;;;;;5088414;28;20044;-85
2022/11/07 01:25:40;;;;;;;0.00;0.00;;;;;;;;;;5088448;28;20032;-85
2022/11/07 01:28:06;;;;;;;0.00;0.00;;;;;;;;;;5088176;28;20068;-85
2022/11/07 01:30:37;;;;;;;0.00;0.00;;;;;;;;;;5088736;28;20087;-86
2022/11/07 01:33:03;;;;;;;0.00;0.00;;;;;;;;;;5088235;28;20089;-85
2022/11/07 01:35:29;;;;;;;0.00;0.00;;;;;;;;;;5071440;28;20438;-85
2022/11/07 01:37:55;;;;;;;0.00;0.00;;;;;;;;;;5087926;28;20063;-86
2022/11/07 01:40:21;;;;;;;0.73;0.08;;;;;;;;;;5088357;28;20040;-86
2022/11/07 01:42:47;;;;;;;0.00;0.00;;;;;;;;;;5088186;28;20395;-85
2022/11/07 01:45:18;;;;;;;0.00;0.00;;;;;;;;;;5071537;28;20047;-85
2022/11/07 01:47:44;;;;;;;0.00;0.00;;;;;;;;;;5071176;28;20040;-85
2022/11/07 01:50:10;;;;;;;0.00;0.00;;;;;;;;;;5088231;28;20063;-85
2022/11/07 01:52:37;;;;;;;0.00;0.00;;;;;;;;;;5088500;28;20041;-85
2022/11/07 01:55:09;;;;;;;0.00;0.00;;;;;;;;;;5088125;28;20040;-85
2022/11/07 01:57:37;;;;;;;0.00;0.00;;;;;;;;;;5088598;28;20041;-84
2022/11/07 02:00:05;;;;;;;0.00;0.00;;;;;;;;;;5087769;28;20036;-85
2022/11/07 02:02:32;;;;;;;0.22;0.17;;;;;;;;;;5087802;28;20538;-85
2022/11/07 02:04:59;;;;;;;0.00;0.00;;;;;;;;;;5087908;28;20119;-86
2022/11/07 02:07:25;;;;;;;0.00;0.00;;;;;;;;;;5088150;28;20037;-86
2022/11/07 02:09:52;;;;;;;0.00;0.00;;;;;;;;;;5087863;28;20033;-85
2022/11/07 02:12:19;;;;;;;0.00;0.00;;;;;;;;;;5088002;28;20072;-86
2022/11/07 02:14:45;;;;;;;0.00;0.00;;;;;;;;;;5073807;28;20036;-85
2022/11/07 02:17:12;;;;;;;0.00;0.00;;;;;;;;;;5074925;28;20086;-85
2022/11/07 02:19:46;;;;;;;0.00;0.00;;;;;;;;;;5091673;28;20044;-85
2022/11/07 02:22:24;;;;;;;0.00;0.00;;;;;;;;;;5091784;28;20552;-85
2022/11/07 02:24:53;;;;;;;0.00;0.00;;;;;;;;;;5091534;28;20083;-86
2022/11/07 02:27:20;;;;;;;0.00;0.00;;;;;;;;;;5091902;28;20108;-86
2022/11/07 02:29:49;;;;;;;0.00;0.00;;;;;;;;;;5091531;28;20123;-85
2022/11/07 02:32:15;;;;;;;0.00;0.00;;;;;;;;;;5091884;28;20087;-85
2022/11/07 02:34:41;;;;;;;0.00;0.00;;;;;;;;;;5074474;28;20051;-85
2022/11/07 02:37:12;;;;;;;0.00;0.00;;;;;;;;;;5091567;28;20056;-85
2022/11/07 02:39:38;;;;;;;0.00;0.00;;;;;;;;;;5091309;28;20052;-85
2022/11/07 02:42:05;;;;;;;0.00;0.00;;;;;;;;;;5074519;28;20098;-85
2022/11/07 02:44:31;;;;;;;0.00;0.00;;;;;;;;;;5075555;28;20123;-85
2022/11/07 02:46:58;;;;;;;0.00;0.00;;;;;;;;;;5091432;28;20123;-85
2022/11/07 02:49:24;;;;;;;0.00;0.00;;;;;;;;;;5091301;28;20095;-85
2022/11/07 02:51:50;;;;;;;0.00;0.00;;;;;;;;;;5091563;28;20048;-85
2022/11/07 02:54:17;;;;;;;0.00;0.00;;;;;;;;;;5090970;28;20231;-85
2022/11/07 02:56:44;;;;;;;0.00;0.00;;;;;;;;;;5091063;28;20513;-85
2022/11/07 02:59:10;;;;;;;0.00;0.00;;;;;;;;;;5090842;28;20044;-85
2022/11/07 03:01:36;;;;;;;0.00;0.00;;;;;;;;;;5090957;28;20040;-86
2022/11/07 03:04:02;;;;;;;0.00;0.00;;;;;;;;;;5090694;28;20048;-85
2022/11/07 03:06:28;;;;;;;0.00;0.00;;;;;;;;;;5091012;28;20402;-85
2022/11/07 03:08:54;;;;;;;0.00;0.00;;;;;;;;;;5090494;28;20032;-85
2022/11/07 03:11:20;;;;;;;0.20;0.00;;;;;;;;;;5090774;28;20506;-86
2022/11/07 03:13:49;;;;;;;0.00;0.00;;;;;;;;;;5090784;28;20071;-85
2022/11/07 03:16:16;;;;;;;0.00;0.00;;;;;;;;;;5091056;28;20063;-85
2022/11/07 03:18:42;;;;;;;0.00;0.00;;;;;;;;;;5073578;28;20072;-86
2022/11/07 03:21:08;;;;;;;0.00;0.00;;;;;;;;;;5090627;28;20145;-85
2022/11/07 03:23:34;;;;;;;0.00;0.00;;;;;;;;;;5090635;28;20040;-87
2022/11/07 03:26:00;;;;;;;0.00;0.00;;;;;;;;;;5090368;28;20036;-86
2022/11/07 03:28:26;;;;;;;0.00;0.00;;;;;;;;;;5090439;28;20135;-85
2022/11/07 03:30:52;;;;;;;0.00;0.00;;;;;;;;;;5090348;28;20483;-86
2022/11/07 03:33:19;;;;;;;0.00;0.00;;;;;;;;;;5090414;28;20044;-86
2022/11/07 03:35:45;;;;;;;0.00;0.00;;;;;;;;;;5091344;28;20363;-85
2022/11/07 03:38:11;;;;;;;0.00;0.00;;;;;;;;;;5076971;28;20040;-86
2022/11/07 03:40:39;;;;;;;0.00;0.00;;;;;;;;;;5076367;28;20363;-86
2022/11/07 03:43:05;;;;;;;0.00;0.00;;;;;;;;;;5076808;28;20036;-85
2022/11/07 03:45:31;;;;;;;0.00;0.00;;;;;;;;;;5076465;28;20356;-86
2022/11/07 03:47:57;;;;;;;0.00;0.00;;;;;;;;;;5076642;28;20121;-86
2022/11/07 03:50:23;;;;;;;0.00;0.00;;;;;;;;;;5076410;28;20036;-86
2022/11/07 03:52:48;;;;;;;0.00;0.00;;;;;;;;;;5076764;28;20040;-85
2022/11/07 03:55:16;;;;;;;0.00;0.00;;;;;;;;;;5076298;28;20123;-85
2022/11/07 03:57:42;;;;;;;0.00;0.00;;;;;;;;;;5076494;28;20051;-85
2022/11/07 04:00:09;;;;;;;0.00;0.00;;;;;;;;;;5076126;28;20040;-85
2022/11/07 04:02:35;;;;;;;0.00;0.00;;;;;;;;;;5076227;28;20036;-85
2022/11/07 04:05:01;;;;;;;0.20;0.10;;;;;;;;;;5076308;28;20047;-86
2022/11/07 04:07:27;;;;;;;0.00;0.00;;;;;;;;;;5076352;28;20209;-86
2022/11/07 04:09:53;;;;;;;0.00;0.00;;;;;;;;;;5075873;28;20063;-87
2022/11/07 04:17:51;;;;;;;0.00;0.00;;;;;;;;;;5076020;28;20487;-86
2022/11/07 04:20:17;;;;;;;0.00;0.00;;;;;;;;;;5075678;28;20040;-86
2022/11/07 04:22:43;;;;;;;0.00;0.00;;;;;;;;;;5076015;28;20040;-86
2022/11/07 04:25:09;;;;;;;0.00;0.00;;;;;;;;;;5075729;28;20442;-86
2022/11/07 04:27:41;;;;;;;0.00;0.00;;;;;;;;;;5076267;28;20063;-86
2022/11/07 04:30:17;;;;;;;0.00;0.00;;;;;;;;;;5075750;28;20036;-86
2022/11/07 04:32:56;;;;;;;0.00;0.00;;;;;;;;;;5075810;28;20111;-86
2022/11/07 04:35:27;;;;;;;0.00;0.00;;;;;;;;;;5075507;28;20073;-86
2022/11/07 04:37:53;;;;;;;0.35;0.35;;;;;;;;;;5075087;28;20052;-86
2022/11/07 04:40:19;;;;;;;0.00;0.00;;;;;;;;;;5075479;28;20036;-86
2022/11/07 04:42:46;;;;;;;0.00;0.00;;;;;;;;;;5075802;28;20031;-86
2022/11/07 04:45:13;;;;;;;0.00;0.00;;;;;;;;;;5075244;28;20075;-86
2022/11/07 04:47:39;;;;;;;0.00;0.00;;;;;;;;;;5075606;28;20482;-86
2022/11/07 04:50:06;;;;;;;0.00;0.00;;;;;;;;;;5075258;28;20036;-86
2022/11/07 04:52:32;;;;;;;0.00;0.00;;;;;;;;;;5075578;28;20040;-85
2022/11/07 04:54:58;;;;;;;0.00;0.00;;;;;;;;;;5075146;28;20455;-86
2022/11/07 04:57:24;;;;;;;0.00;0.00;;;;;;;;;;5075644;28;20044;-86
2022/11/07 04:59:50;;;;;;;0.00;0.00;;;;;;;;;;5075139;28;20127;-86
2022/11/07 05:02:16;;;;;;;0.20;0.00;;;;;;;;;;5075210;28;20047;-86
2022/11/07 05:04:42;;;;;;;0.00;0.00;;;;;;;;;;5075042;28;20043;-86
2022/11/07 05:07:08;;;;;;;0.00;0.00;;;;;;;;;;5075671;28;20040;-85
2022/11/07 05:09:34;;;;;;;0.00;0.00;;;;;;;;;;5075008;28;20032;-86
2022/11/07 05:12:01;;;;;;;0.00;0.00;;;;;;;;;;5075336;28;20051;-85
2022/11/07 05:14:29;;;;;;;0.00;0.00;;;;;;;;;;5075176;28;20526;-85
2022/11/07 05:16:56;;;;;;;0.00;0.00;;;;;;;;;;5074906;28;20046;-86
2022/11/07 05:19:22;;;;;;;0.00;0.00;;;;;;;;;;5074928;28;20039;-86
2022/11/07 05:23:10;;;;;;;0.00;0.00;;;;;;;;;;5074760;28;20105;-85
2022/11/07 05:24:34;;;;;;;0.00;0.00;;;;;;;;;;5075068;28;20047;-85
2022/11/07 05:27:00;;;;;;;0.00;0.00;;;;;;;;;;5075177;28;20098;-85
2022/11/07 05:29:26;;;;;;;0.00;0.00;;;;;;;;;;5074951;28;20491;-85
2022/11/07 05:31:51;;;;;;;0.00;0.00;;;;;;;;;;5075035;28;20130;-85
2022/11/07 05:34:17;;;;;;;0.00;0.00;;;;;;;;;;5075270;28;20044;-85
2022/11/07 05:36:43;;;;;;;0.00;0.00;;;;;;;;;;5092678;28;20138;-85
2022/11/07 05:39:09;;;;;;;0.00;0.00;;;;;;;;;;5074846;28;20389;-85
2022/11/07 05:41:35;;;;;;;0.00;0.00;;;;;;;;;;5074565;28;20130;-84
2022/11/07 05:44:01;;;;;;;0.00;0.00;;;;;;;;;;5074851;28;20492;-85
2022/11/07 05:46:27;;;;;;;0.00;0.00;;;;;;;;;;5074633;28;20084;-85
2022/11/07 05:48:53;;;;;;;0.00;0.00;;;;;;;;;;5076521;28;20048;-85
2022/11/07 05:51:19;;;;;;;0.00;0.00;;;;;;;;;;5078928;28;20445;-85
2022/11/07 05:53:45;;;;;;;0.00;0.00;;;;;;;;;;5078928;28;20036;-85
2022/11/07 05:56:11;;;;;;;0.00;0.00;;;;;;;;;;5078649;28;20391;-86
2022/11/07 05:58:37;;;;;;;0.00;0.00;;;;;;;;;;5078832;28;20067;-85
2022/11/07 06:01:04;;;;;;;0.00;0.00;;;;;;;;;;5078636;28;20109;-87
2022/11/07 06:03:30;;;;;;;0.00;0.00;;;;;;;;;;5078774;28;20044;-86
2022/11/07 06:05:56;;;;;;;0.00;0.00;;;;;;;;;;5078494;28;20038;-86
2022/11/07 06:08:22;;;;;;;0.00;0.00;;;;;;;;;;5078954;28;20458;-86
2022/11/07 06:10:48;;;;;;;0.00;0.00;;;;;;;;;;5078294;28;20040;-85
2022/11/07 06:13:15;;;;;;;0.00;0.00;;;;;;;;;;5078708;28;20445;-87
2022/11/07 06:15:42;;;;;;;0.00;0.00;;;;;;;;;;5078340;28;20047;-86
2022/11/07 06:18:14;;;;;;;0.00;0.00;;;;;;;;;;5078326;28;20097;-86
2022/11/07 06:20:40;;;;;;;0.00;0.00;;;;;;;;;;5078193;28;20113;-87
2022/11/07 06:23:06;;;;;;;0.00;0.00;;;;;;;;;;5078139;28;20036;-87
2022/11/07 06:25:32;;;;;;;0.00;0.00;;;;;;;;;;5078147;28;20043;-86
2022/11/07 06:28:08;;;;;;;0.00;0.00;;;;;;;;;;5078484;28;20040;-85
2022/11/07 06:30:34;;;;;;;0.00;0.00;;;;;;;;;;5078070;28;20078;-86
2022/11/07 06:33:01;;;;;;;0.00;0.00;;;;;;;;;;5078109;28;20483;-85
2022/11/07 06:35:29;;;;;;;0.00;0.00;;;;;;;;;;5077782;28;20522;-86
2022/11/07 06:37:55;;;;;;;0.00;0.00;;;;;;;;;;5077787;28;20131;-87
2022/11/07 06:40:21;;;;;;;0.00;0.00;;;;;;;;;;5078105;28;20067;-88
2022/11/07 06:42:47;;;;;;;0.00;0.00;;;;;;;;;;5077724;28;20123;-85
2022/11/07 06:45:13;;;;;;;0.00;0.00;;;;;;;;;;5096326;28;20094;-86
2022/11/07 06:47:39;;;;;;;0.00;0.00;;;;;;;;;;5077656;28;20047;-85
2022/11/07 06:50:05;;;;;;;0.00;0.00;;;;;;;;;;5096039;28;20123;-86
2022/11/07 06:52:31;;;;;;;0.00;0.00;;;;;;;;;;5077529;28;20075;-84
2022/11/07 06:54:57;;;;;;;0.00;0.00;;;;;;;;;;5077741;28;20048;-84
2022/11/07 06:57:23;;;;;;;0.00;0.00;;;;;;;;;;5095619;28;20044;-85
2022/11/07 06:59:49;;;;;;;0.00;0.00;;;;;;;;;;5077363;28;20075;-84
2022/11/07 07:02:15;;;;;;;0.00;0.00;;;;;;;;;;5095559;28;20079;-84
2022/11/07 07:04:41;;;;;;;0.00;0.00;;;;;;;;;;5077801;28;20104;-84
2022/11/07 07:07:07;;;;;;;0.00;0.00;;;;;;;;;;5077539;28;20383;-84
2022/11/07 07:09:33;;;;;;;0.00;0.00;;;;;;;;;;5068572;28;20149;-85
2022/11/07 07:11:59;;;;;;;0.00;0.00;;;;;;;;;;5057156;28;20090;-86
2022/11/07 07:14:25;;;;;;;0.00;0.00;;;;;;;;;;5057211;28;20148;-84
2022/11/07 07:16:51;;;;;;;0.00;0.00;;;;;;;;;;5090366;28;20077;-85
2022/11/07 07:19:17;;;;;;;0.00;0.00;;;;;;;;;;5056804;28;20120;-85
2022/11/07 07:21:43;;;;;;;0.00;0.00;;;;;;;;;;5056561;28;20127;-85
2022/11/07 07:24:09;;;;;;;0.00;0.00;;;;;;;;;;5056954;28;20047;-85
2022/11/07 07:26:35;;;;;;;0.00;0.00;;;;;;;;;;5056627;28;20078;-85
2022/11/07 07:29:00;;;;;;;0.00;0.00;;;;;;;;;;5056636;28;20043;-85
2022/11/07 07:31:30;;;;;;;0.00;0.00;;;;;;;;;;5056477;28;20395;-85
2022/11/07 07:33:59;;;;;;;0.00;0.00;;;;;;;;;;5093840;28;20395;-86
2022/11/07 07:36:25;;;;;;;0.00;0.00;;;;;;;;;;5093357;28;20064;-86
2022/11/07 07:38:51;;;;;;;0.00;0.00;;;;;;;;;;5076618;28;20043;-85
2022/11/07 07:41:17;;;;;;;0.00;0.00;;;;;;;;;;5076222;28;20048;-85
2022/11/07 07:43:43;;;;;;;0.00;0.00;;;;;;;;;;5094518;28;20047;-85
2022/11/07 07:46:13;;;;;;;0.00;0.00;;;;;;;;;;5094562;28;20094;-85
2022/11/07 07:48:39;;;;;;;0.00;0.00;;;;;;;;;;5076451;28;20035;-85
2022/11/07 07:51:05;;;;;;;0.00;0.00;;;;;;;;;;5076640;28;20051;-85
2022/11/07 07:53:31;;;;;;;0.00;0.00;;;;;;;;;;5076246;28;20099;-85
2022/11/07 07:55:58;;;;;;;0.00;0.00;;;;;;;;;;5076530;28;20044;-85
2022/11/07 07:58:24;;;;;;;0.00;0.00;;;;;;;;;;5094074;28;20377;-86
2022/11/07 08:00:51;;;;;;;0.00;0.00;;;;;;;;;;5072806;28;20045;-85
2022/11/07 08:03:17;;;;;;;0.00;0.00;;;;;;;;;;5064288;28;20064;-85
2022/11/07 08:05:43;;;;;;;0.00;0.00;;;;;;;;;;5056296;28;20492;-85
2022/11/07 08:08:09;;;;;;;0.00;0.00;;;;;;;;;;5074444;28;20032;-85
2022/11/07 08:10:35;;;;;;;0.00;0.00;;;;;;;;;;5093453;28;20467;-85
2022/11/07 08:13:01;;;;;;;0.00;0.00;;;;;;;;;;5075562;28;20368;-86
2022/11/07 08:15:27;;;;;;;0.00;0.00;;;;;;;;;;5075792;28;20043;-85
2022/11/07 08:17:53;;;;;;;0.00;0.00;;;;;;;;;;5076028;28;20048;-85
2022/11/07 08:20:19;;;;;;;0.32;0.32;;;;;;;;;;5075735;28;20499;-85
2022/11/07 08:22:46;;;;;;;0.00;0.00;;;;;;;;;;5075457;28;20514;-85
2022/11/07 08:25:12;;;;;;;0.00;0.00;;;;;;;;;;5075581;28;20036;-86
2022/11/07 08:27:38;;;;;;;0.00;0.00;;;;;;;;;;5075500;28;20090;-85
2022/11/07 08:30:06;;;;;;;0.00;0.00;;;;;;;;;;5075399;28;20040;-85
2022/11/07 08:32:32;;;;;;;0.00;0.00;;;;;;;;;;5075295;28;20035;-85
2022/11/07 08:34:58;;;;;;;0.00;0.00;;;;;;;;;;5092508;28;20128;-84
2022/11/07 08:37:24;;;;;;;0.00;0.00;;;;;;;;;;5064165;28;20475;-85
2022/11/07 08:39:50;;;;;;;0.00;0.00;;;;;;;;;;5055373;28;20052;-86
2022/11/07 08:42:16;;;;;;;0.05;0.00;;;;;;;;;;5055001;28;20064;-85
2022/11/07 08:44:42;;;;;;;0.00;0.00;;;;;;;;;;5074211;28;20032;-83
2022/11/07 08:47:07;;;;;;;0.00;0.00;;;;;;;;;;5075386;28;20044;-83
2022/11/07 08:49:34;;;;;;;0.00;0.00;;;;;;;;;;5075737;28;20039;-83
2022/11/07 08:52:01;;;;;;;0.00;0.00;;;;;;;;;;5075408;28;20364;-82
2022/11/07 08:54:27;;;;;;;0.00;0.00;;;;;;;;;;5075347;28;20479;-83
2022/11/07 08:56:54;;;;;;;0.00;0.00;;;;;;;;;;5092400;28;20044;-83
2022/11/07 08:59:20;;;;;;;0.00;0.00;;;;;;;;;;5075587;28;20036;-83
2022/11/07 09:01:46;;;;;;;0.00;0.00;;;;;;;;;;5075448;28;20051;-83
2022/11/07 09:04:12;;;;;;;0.00;0.00;;;;;;;;;;5075485;28;20036;-82
2022/11/07 09:06:38;;;;;;;0.00;0.00;;;;;;;;;;5075195;28;20094;-83
2022/11/07 09:09:04;;;;;;;0.00;0.00;;;;;;;;;;5075016;28;20067;-82
2022/11/07 09:11:30;;;;;;;0.00;0.00;;;;;;;;;;5075404;28;20317;-83
2022/11/07 09:13:56;;;;;;;0.00;0.00;;;;;;;;;;5075370;28;20043;-82
2022/11/07 09:16:22;;;;;;;0.00;0.00;;;;;;;;;;5075064;28;20044;-83
2022/11/07 09:18:49;;;;;;;0.00;0.00;;;;;;;;;;5074676;28;20051;-83
2022/11/07 09:21:16;;;;;;;0.00;0.00;;;;;;;;;;5093302;28;20091;-84
2022/11/07 09:23:42;;;;;;;0.00;0.00;;;;;;;;;;5089794;28;20032;-83
2022/11/07 09:26:08;;;;;;;0.00;0.00;;;;;;;;;;5094167;28;20480;-83
2022/11/07 09:28:33;;;;;;;0.00;0.00;;;;;;;;;;5076484;28;20040;-83
2022/11/07 09:31:00;;;;;;;0.00;0.00;;;;;;;;;;5077975;28;20044;-83
2022/11/07 09:33:27;;;;;;;0.00;0.00;;;;;;;;;;5078091;28;20051;-83
2022/11/07 09:35:53;;;;;;;0.00;0.00;;;;;;;;;;5078024;28;20054;-83
2022/11/07 09:38:19;;;;;;;0.00;0.00;;;;;;;;;;5096395;28;20044;-83
2022/11/07 09:41:03;;;;;;;0.00;0.00;;;;;;;;;;5076465;28;20047;-84
2022/11/07 09:43:32;;;;;;;0.00;0.00;;;;;;;;;;5074732;28;20102;-80
2022/11/07 09:46:04;;;;;;;0.00;0.00;;;;;;;;;;5074943;28;20044;-83
2022/11/07 09:48:43;;;;;;;0.00;0.00;;;;;;;;;;5074459;28;20550;-83
2022/11/07 09:51:14;;;;;;;0.00;0.00;;;;;;;;;;5075161;28;20586;-82
2022/11/07 09:53:43;;;;;;;0.00;0.00;;;;;;;;;;5091733;28;20040;-83
2022/11/07 09:56:11;;;;;;;0.00;0.00;;;;;;;;;;5074956;28;20050;-82
2022/11/07 09:58:42;;;;;;;0.10;0.00;;;;;;;;;;5074659;28;20080;-82
2022/11/07 10:01:12;;;;;;;0.05;0.00;;;;;;;;;;5092908;28;20051;-82
2022/11/07 10:03:39;;;;;;;0.00;0.00;;;;;;;;;;5091365;28;20036;-84
2022/11/07 10:06:24;;;;;;;0.88;0.15;;;;;;;;;;5074831;28;20042;-83
2022/11/07 10:09:10;;;;;;;0.00;0.00;;;;;;;;;;5074340;28;20075;-83
2022/11/07 10:11:42;;;;;;;0.00;0.00;;;;;;;;;;5093020;28;20442;-79
2022/11/07 10:14:08;;;;;;;0.00;0.00;;;;;;;;;;5092703;28;20044;-83
2022/11/07 10:16:46;;;;;;;0.00;0.00;;;;;;;;;;5074825;28;20051;-81
2022/11/07 10:19:31;;;;;;;0.00;0.00;;;;;;;;;;5092515;28;20448;-91
2022/11/07 10:22:11;;;;;;;0.00;0.00;;;;;;;;;;5092645;28;20044;-82
2022/11/07 10:24:46;;;;;;;0.00;0.00;;;;;;;;;;5074555;28;20048;-82
2022/11/07 10:27:12;;;;;;;0.00;0.00;;;;;;;;;;5074634;28;20472;-83
2022/11/07 10:29:46;;;;;;;0.43;0.43;;;;;;;;;;5092367;28;20476;-82
2022/11/07 10:32:31;;;;;;;0.00;0.00;;;;;;;;;;5074737;28;20044;-82
2022/11/07 10:35:12;;;;;;;0.00;0.00;;;;;;;;;;5075803;28;20047;-83
2022/11/07 10:37:38;;;;;;;0.00;0.00;;;;;;;;;;5078159;28;20077;-82
2022/11/07 10:40:32;;;;;;;0.00;0.00;;;;;;;;;;5078138;28;20039;-82
2022/11/07 10:42:59;;;;;;;0.00;0.00;;;;;;;;;;5092992;28;20119;-82
2022/11/07 10:45:26;;;;;;;0.00;0.00;;;;;;;;;;5095954;28;20436;-82
2022/11/07 10:47:56;;;;;;;0.00;0.00;;;;;;;;;;5096298;28;20111;-85
2022/11/07 10:50:24;;;;;;;0.00;0.00;;;;;;;;;;5077931;28;20386;-85
2022/11/07 10:52:54;;;;;;;0.00;0.00;;;;;;;;;;5077838;28;20048;-82
2022/11/07 10:55:21;;;;;;;0.30;0.25;;;;;;;;;;5077617;28;20044;-82
2022/11/07 10:57:50;;;;;;;0.00;0.00;;;;;;;;;;5077803;28;20491;-82
2022/11/07 11:00:21;;;;;;;0.00;0.00;;;;;;;;;;5095529;28;20513;-82
2022/11/07 11:02:48;;;;;;;0.00;0.00;;;;;;;;;;5096068;28;20040;-82
2022/11/07 11:05:22;;;;;;;0.00;0.00;;;;;;;;;;5095754;28;20040;-83
2022/11/07 11:07:48;;;;;;;0.00;0.00;;;;;;;;;;5077714;28;20054;-82
2022/11/07 11:10:19;;;;;;;0.00;0.00;;;;;;;;;;5077294;28;20150;-85
2022/11/07 11:12:46;;;;;;;0.00;0.00;;;;;;;;;;5077437;28;20039;-85
2022/11/07 11:15:13;;;;;;;0.00;0.00;;;;;;;;;;5077190;28;20129;-85
2022/11/07 11:17:39;;;;;;;0.00;0.00;;;;;;;;;;5077270;28;20093;-85
2022/11/07 11:20:07;;;;;;;0.00;0.00;;;;;;;;;;5077045;28;20528;-86
2022/11/07 11:22:39;;;;;;;0.00;0.00;;;;;;;;;;5077451;28;20071;-85
2022/11/07 11:25:11;;;;;;;0.00;0.00;;;;;;;;;;5077004;28;20047;-84
2022/11/07 11:27:38;;;;;;;0.00;0.00;;;;;;;;;;5077389;28;20078;-85
2022/11/07 11:30:06;;;;;;;0.00;0.00;;;;;;;;;;5076786;28;20483;-84
2022/11/07 11:32:40;;;;;;;0.00;0.00;;;;;;;;;;5094015;28;20047;-84
2022/11/07 11:35:06;;;;;;;0.00;0.00;;;;;;;;;;5073998;28;20491;-84
2022/11/07 11:37:35;;;;;;;0.00;0.00;;;;;;;;;;5069955;28;20567;-84
2022/11/07 11:40:02;;;;;;;0.00;0.00;;;;;;;;;;5053215;28;20052;-84
2022/11/07 11:42:49;;;;;;;0.10;0.00;;;;;;;;;;5053376;28;20444;-84
2022/11/07 11:45:16;;;;;;;0.00;0.00;;;;;;;;;;5053110;28;20123;-84
2022/11/07 11:47:45;;;;;;;0.00;0.00;;;;;;;;;;5053600;28;20037;-85
2022/11/07 11:50:18;;;;;;;0.00;0.00;;;;;;;;;;5054417;28;20068;-84
2022/11/07 11:52:45;;;;;;;0.00;0.00;;;;;;;;;;5053359;28;20080;-84
2022/11/07 11:55:15;;;;;;;0.00;0.00;;;;;;;;;;5053212;28;20044;-84
2022/11/07 11:57:54;;;;;;;0.00;0.00;;;;;;;;;;5053233;28;20048;-84
2022/11/07 12:00:20;;;;;;;0.00;0.00;;;;;;;;;;5053104;28;20049;-84
2022/11/07 12:03:05;;;;;;;0.00;0.00;;;;;;;;;;5069802;28;20471;-84
2022/11/07 12:05:45;;;;;;;0.00;0.00;;;;;;;;;;5052665;28;20076;-84
2022/11/07 12:08:11;;;;;;;0.00;0.00;;;;;;;;;;5053334;28;20094;-84
2022/11/07 12:10:48;;;;;;;0.00;0.00;;;;;;;;;;5052749;28;20044;-84
2022/11/07 12:13:33;;;;;;;0.10;0.08;;;;;;;;;;5052788;28;20044;-84
2022/11/07 12:16:06;;;;;;;0.00;0.00;;;;;;;;;;5052675;28;20041;-84
2022/11/07 12:18:35;;;;;;;0.00;0.00;;;;;;;;;;5052686;28;20044;-84
2022/11/07 12:21:20;;;;;;;0.00;0.00;;;;;;;;;;5052893;28;20048;-84
2022/11/07 12:23:58;;;;;;;0.00;0.00;;;;;;;;;;5052726;28;20048;-84
2022/11/07 12:26:27;;;;;;;0.00;0.00;;;;;;;;;;5052623;28;20051;-84
2022/11/07 12:28:53;;;;;;;0.00;0.00;;;;;;;;;;5052483;28;20048;-84
2022/11/07 12:31:38;;;;;;;0.00;0.00;;;;;;;;;;5052551;28;20392;-86
2022/11/07 12:34:23;;;;;;;0.00;0.00;;;;;;;;;;5052320;28;20049;-84
2022/11/07 12:37:07;;;;;;;0.00;0.00;;;;;;;;;;5063461;28;20139;-84
2022/11/07 12:39:47;;;;;;;0.10;0.10;;;;;;;;;;5089028;28;20075;-83
2022/11/07 12:42:26;;;;;;;0.00;0.00;;;;;;;;;;5089275;28;20051;-84
2022/11/07 12:45:27;;;;;;;0.00;0.00;;;;;;;;;;5089182;28;20499;-84
2022/11/07 12:47:59;;;;;;;0.00;0.00;;;;;;;;;;5034514;28;20055;-84
2022/11/07 12:50:28;;;;;;;0.00;0.00;;;;;;;;;;5052071;28;20055;-84
2022/11/07 12:53:23;;;;;;;0.00;0.00;;;;;;;;;;5089022;28;20426;-84
2022/11/07 12:55:51;;;;;;;0.00;0.00;;;;;;;;;;5020531;28;20056;-85
2022/11/07 12:58:20;;;;;;;0.00;0.00;;;;;;;;;;5088470;28;20041;-84
2022/11/07 13:00:46;;;;;;;0.00;0.00;;;;;;;;;;5088851;28;20045;-84
2022/11/07 13:03:31;;;;;;;0.00;0.00;;;;;;;;;;5088868;28;20045;-85
2022/11/07 13:06:08;;;;;;;0.00;0.00;;;;;;;;;;5088583;28;20044;-85
2022/11/07 13:08:53;;;;;;;0.00;0.00;;;;;;;;;;5088980;28;20079;-84
2022/11/07 13:11:28;;;;;;;0.00;0.00;;;;;;;;;;5088657;28;20044;-85
2022/11/07 13:14:00;;;;;;;0.00;0.00;;;;;;;;;;5088633;28;20166;-85
2022/11/07 13:16:28;;;;;;;0.00;0.00;;;;;;;;;;5088608;28;20043;-91
2022/11/07 13:18:54;;;;;;;0.00;0.00;;;;;;;;;;5088607;28;20050;-86
2022/11/07 13:21:21;;;;;;;0.00;0.00;;;;;;;;;;5073062;28;20041;-83
2022/11/07 13:23:47;;;;;;;0.00;0.00;;;;;;;;;;5071452;28;20036;-84
2022/11/07 13:26:13;;;;;;;0.00;0.00;;;;;;;;;;5054871;28;20039;-84
2022/11/07 13:28:44;;;;;;;0.00;0.00;;;;;;;;;;5054947;28;20044;-84
2022/11/07 13:31:29;;;;;;;0.00;0.00;;;;;;;;;;5088484;28;20049;-84
2022/11/07 13:34:08;;;;;;;0.00;0.00;;;;;;;;;;5054909;28;20059;-84
2022/11/07 13:36:35;;;;;;;0.10;0.00;;;;;;;;;;5071464;28;20492;-84
2022/11/07 13:39:04;;;;;;;0.00;0.00;;;;;;;;;;5054979;28;20101;-84
2022/11/07 13:41:30;;;;;;;0.00;0.00;;;;;;;;;;5054600;28;20040;-84
2022/11/07 13:44:01;;;;;;;0.00;0.00;;;;;;;;;;5054754;28;20074;-84
2022/11/07 13:46:30;;;;;;;0.00;0.00;;;;;;;;;;5055011;28;20043;-84
2022/11/07 13:49:03;;;;;;;0.15;0.00;;;;;;;;;;5054608;28;20054;-84
2022/11/07 13:51:44;;;;;;;0.00;0.00;;;;;;;;;;5055170;28;20036;-84
2022/11/07 13:54:49;;;;;;;0.00;0.00;;;;;;;;;;5054677;28;20480;-83
2022/11/07 13:57:15;;;;;;;0.00;0.00;;;;;;;;;;4994399;28;20120;-84
2022/11/07 13:59:49;;;;;;;0.00;0.00;;;;;;;;;;4994126;28;20057;-84
2022/11/07 14:02:25;;;;;;;0.00;0.00;;;;;;;;;;4994311;28;20054;-84
2022/11/07 14:04:55;;;;;;;0.00;0.00;;;;;;;;;;4994198;28;20058;-84
2022/11/07 14:07:24;;;;;;;0.00;0.00;;;;;;;;;;4994410;28;20037;-84
2022/11/07 14:09:55;;;;;;;0.00;0.00;;;;;;;;;;5073735;28;20437;-84
2022/11/07 14:12:21;;;;;;;0.00;0.00;;;;;;;;;;5076462;28;20559;-84
2022/11/07 14:14:48;;;;;;;0.00;0.00;;;;;;;;;;5058245;28;20053;-84
2022/11/07 14:17:16;;;;;;;0.00;0.00;;;;;;;;;;5091983;28;20036;-84
2022/11/07 14:19:43;;;;;;;0.00;0.00;;;;;;;;;;5058176;28;20044;-84
2022/11/07 14:22:22;;;;;;;0.00;0.00;;;;;;;;;;5058123;28;20040;-84
2022/11/07 14:24:57;;;;;;;0.00;0.00;;;;;;;;;;5091565;28;20040;-84
2022/11/07 14:27:24;;;;;;;0.00;0.00;;;;;;;;;;5091669;28;20037;-84
2022/11/07 14:29:51;;;;;;;0.00;0.00;;;;;;;;;;5057783;28;20036;-82
2022/11/07 14:32:17;;;;;;;0.00;0.00;;;;;;;;;;5058237;28;20045;-82
2022/11/07 14:34:44;;;;;;;0.00;0.00;;;;;;;;;;5057845;28;20078;-85
2022/11/07 14:37:14;;;;;;;0.00;0.00;;;;;;;;;;5075778;28;20140;-82
2022/11/07 14:39:40;;;;;;;0.00;0.00;;;;;;;;;;5058068;28;20119;-83
2022/11/07 14:42:07;;;;;;;0.00;0.00;;;;;;;;;;5074752;28;20119;-82
2022/11/07 14:44:34;;;;;;;0.00;0.00;;;;;;;;;;5057908;28;20068;-82
2022/11/07 14:47:00;;;;;;;0.00;0.00;;;;;;;;;;5091324;28;20119;-82
2022/11/07 14:49:40;;;;;;;0.00;0.00;;;;;;;;;;5060792;28;20040;-83
2022/11/07 14:52:07;;;;;;;0.20;0.10;;;;;;;;;;5094734;28;20043;-82
2022/11/07 14:54:37;;;;;;;0.00;0.00;;;;;;;;;;5094543;28;20044;-82
2022/11/07 14:57:03;;;;;;;0.00;0.00;;;;;;;;;;5095915;28;20032;-83
2022/11/07 14:59:32;;;;;;;0.00;0.00;;;;;;;;;;5094443;28;20369;-83
2022/11/07 15:02:02;;;;;;;0.00;0.00;;;;;;;;;;5077263;28;20071;-82